createdAt,value
2022-10-10T00:00:56.457Z,93.30
2022-10-10T00:03:25.452Z,93.30
2022-10-10T00:05:53.687Z,93.30
2022-10-10T00:08:21.848Z,93.30
2022-10-10T00:10:50.071Z,93.30
2022-10-10T00:13:19.728Z,93.30
2022-10-10T00:15:48.943Z,93.30
2022-10-10T00:18:17.656Z,93.30
2022-10-10T00:20:45.878Z,93.30
2022-10-10T00:23:14.067Z,93.30
2022-10-10T00:25:42.415Z,93.30
2022-10-10T00:28:10.604Z,93.30
2022-10-10T00:30:40.319Z,93.30
2022-10-10T00:33:08.857Z,93.30
2022-10-10T00:35:37.275Z,93.30
2022-10-10T00:38:05.663Z,93.30
2022-10-10T00:40:34.003Z,93.30
2022-10-10T00:43:02.395Z,93.30
2022-10-10T00:45:34.462Z,93.30
2022-10-10T00:48:08.027Z,93.30
2022-10-10T00:50:39.851Z,93.30
2022-10-10T00:53:11.114Z,93.30
2022-10-10T00:55:39.682Z,93.30
2022-10-10T00:58:10.083Z,93.30
2022-10-10T01:00:38.446Z,93.30
2022-10-10T01:03:08.079Z,93.30
2022-10-10T01:05:37.140Z,93.70
2022-10-10T01:08:07.635Z,93.30
2022-10-10T01:10:42.996Z,93.40
2022-10-10T01:13:21.184Z,93.30
2022-10-10T01:15:57.714Z,93.30
2022-10-10T01:18:34.935Z,93.30
2022-10-10T01:21:24.190Z,93.40
2022-10-10T01:24:22.074Z,93.30
2022-10-10T01:27:17.765Z,93.40
2022-10-10T01:29:52.655Z,93.40
2022-10-10T01:32:28.296Z,93.40
2022-10-10T01:35:04.793Z,93.40
2022-10-10T01:37:41.655Z,93.40
2022-10-10T01:40:16.919Z,93.40
2022-10-10T01:42:51.889Z,93.40
2022-10-10T01:45:22.766Z,93.40
2022-10-10T01:47:52.205Z,93.40
2022-10-10T01:50:23.767Z,93.40
2022-10-10T01:53:01.774Z,93.40
2022-10-10T01:55:52.707Z,93.40
2022-10-10T01:58:49.839Z,93.40
2022-10-10T02:01:27.323Z,93.40
2022-10-10T02:04:03.493Z,93.40
2022-10-10T02:06:37.579Z,93.40
2022-10-10T02:09:09.816Z,93.40
2022-10-10T02:11:40.523Z,93.40
2022-10-10T02:14:16.375Z,93.40
2022-10-10T02:16:48.026Z,93.40
2022-10-10T02:19:19.806Z,93.40
2022-10-10T02:21:49.627Z,93.50
2022-10-10T02:24:19.846Z,93.50
2022-10-10T02:26:53.438Z,93.50
2022-10-10T02:29:25.479Z,93.40
2022-10-10T02:32:03.514Z,93.50
2022-10-10T02:34:36.440Z,93.50
2022-10-10T02:37:07.280Z,93.50
2022-10-10T02:39:38.512Z,93.50
2022-10-10T02:42:08.824Z,93.50
2022-10-10T02:44:38.082Z,93.50
2022-10-10T02:47:07.646Z,93.50
2022-10-10T02:49:36.468Z,93.50
2022-10-10T02:52:05.439Z,93.50
2022-10-10T02:54:33.849Z,93.50
2022-10-10T02:57:01.987Z,93.50
2022-10-10T02:59:30.163Z,93.50
2022-10-10T03:01:58.416Z,93.50
2022-10-10T03:04:28.826Z,93.50
2022-10-10T03:06:57.668Z,93.50
2022-10-10T03:09:25.838Z,93.50
2022-10-10T03:11:53.974Z,93.50
2022-10-10T03:14:25.135Z,93.50
2022-10-10T03:16:53.317Z,93.50
2022-10-10T03:19:21.554Z,93.50
2022-10-10T03:21:51.183Z,93.50
2022-10-10T03:24:19.343Z,93.50
2022-10-10T03:26:47.532Z,93.50
2022-10-10T03:29:15.784Z,93.50
2022-10-10T03:31:43.984Z,93.50
2022-10-10T03:34:12.235Z,93.90
2022-10-10T03:36:40.394Z,93.50
2022-10-10T03:39:10.357Z,93.50
2022-10-10T03:41:38.533Z,93.50
2022-10-10T03:44:06.686Z,93.50
2022-10-10T03:46:34.843Z,93.50
2022-10-10T03:49:03.052Z,93.50
2022-10-10T03:51:31.186Z,93.50
2022-10-10T03:53:59.368Z,93.50
2022-10-10T03:56:29.024Z,93.50
2022-10-10T03:59:00.533Z,93.50
2022-10-10T04:01:30.062Z,93.90
2022-10-10T04:03:58.311Z,93.50
2022-10-10T04:06:27.569Z,93.90
2022-10-10T04:08:55.737Z,93.50
2022-10-10T04:11:23.957Z,93.50
2022-10-10T04:13:53.499Z,93.50
2022-10-10T04:16:21.669Z,93.50
2022-10-10T04:18:49.924Z,93.60
2022-10-10T04:21:18.427Z,93.60
2022-10-10T04:23:46.620Z,93.60
2022-10-10T04:26:14.795Z,93.60
2022-10-10T04:28:43.070Z,93.60
2022-10-10T04:31:12.763Z,93.60
2022-10-10T04:33:40.910Z,93.60
2022-10-10T04:36:09.319Z,93.70
2022-10-10T04:38:37.601Z,93.70
2022-10-10T04:41:06.098Z,93.70
2022-10-10T04:43:34.363Z,93.70
2022-10-10T04:46:02.646Z,93.80
2022-10-10T04:48:32.225Z,93.80
2022-10-10T04:51:00.925Z,93.80
2022-10-10T04:53:29.466Z,93.80
2022-10-10T04:55:58.890Z,93.80
2022-10-10T04:58:27.263Z,93.80
2022-10-10T05:00:56.528Z,93.80
2022-10-10T05:03:25.891Z,93.80
2022-10-10T05:05:55.653Z,93.80
2022-10-10T05:08:23.868Z,93.80
2022-10-10T05:10:53.689Z,93.80
2022-10-10T05:13:21.861Z,93.80
2022-10-10T05:15:52.308Z,93.90
2022-10-10T05:18:20.878Z,93.90
2022-10-10T05:20:49.024Z,93.80
2022-10-10T05:23:18.712Z,93.80
2022-10-10T05:25:50.078Z,94.20
2022-10-10T05:28:18.630Z,93.80
2022-10-10T05:30:46.831Z,93.90
2022-10-10T05:33:15.032Z,93.90
2022-10-10T05:35:43.253Z,93.90
2022-10-10T05:38:11.437Z,93.80
2022-10-10T05:40:42.107Z,93.90
2022-10-10T05:43:10.626Z,93.90
2022-10-10T05:45:38.975Z,93.90
2022-10-10T05:48:07.170Z,93.80
2022-10-10T05:50:38.522Z,93.90
2022-10-10T05:53:07.559Z,93.90
2022-10-10T05:55:36.674Z,93.90
2022-10-10T05:58:06.835Z,93.90
2022-10-10T06:00:36.572Z,93.90
2022-10-10T06:03:05.298Z,93.90
2022-10-10T06:05:33.856Z,93.90
2022-10-10T06:08:10.683Z,93.90
2022-10-10T06:10:42.104Z,93.90
2022-10-10T06:13:12.418Z,93.90
2022-10-10T06:15:40.814Z,93.90
2022-10-10T06:18:09.449Z,93.90
2022-10-10T06:20:37.639Z,93.90
2022-10-10T06:23:06.840Z,93.90
2022-10-10T06:25:41.512Z,93.90
2022-10-10T06:28:12.747Z,93.90
2022-10-10T06:30:42.317Z,94.00
2022-10-10T06:33:11.061Z,93.90
2022-10-10T06:35:43.939Z,93.90
2022-10-10T06:38:12.892Z,94.00
2022-10-10T06:40:41.799Z,93.90
2022-10-10T06:43:12.856Z,93.90
2022-10-10T06:45:43.002Z,93.90
2022-10-10T06:48:11.479Z,93.90
2022-10-10T06:50:39.712Z,93.90
2022-10-10T06:53:08.047Z,93.90
2022-10-10T06:55:36.300Z,93.80
2022-10-10T06:58:05.133Z,93.80
2022-10-10T07:00:34.688Z,93.80
2022-10-10T07:03:03.085Z,93.80
2022-10-10T07:05:31.679Z,93.80
2022-10-10T07:08:00.211Z,93.80
2022-10-10T07:10:28.503Z,93.80
2022-10-10T07:12:57.483Z,94.00
2022-10-10T07:15:26.008Z,94.10
2022-10-10T07:18:00.130Z,94.30
2022-10-10T07:20:28.753Z,94.40
2022-10-10T07:22:57.506Z,94.50
2022-10-10T07:25:26.226Z,94.40
2022-10-10T07:27:54.807Z,94.40
2022-10-10T07:30:23.076Z,94.50
2022-10-10T07:32:51.627Z,94.80
2022-10-10T07:35:21.745Z,95.00
2022-10-10T07:37:54.269Z,95.20
2022-10-10T07:40:22.704Z,95.20
2022-10-10T07:42:51.521Z,95.30
2022-10-10T07:45:20.290Z,95.20
2022-10-10T07:47:48.736Z,95.20
2022-10-10T07:50:17.341Z,95.30
2022-10-10T07:52:46.863Z,95.30
2022-10-10T07:55:15.251Z,95.40
2022-10-10T07:57:43.422Z,95.50
2022-10-10T08:00:12.734Z,95.50
2022-10-10T08:02:41.038Z,95.60
2022-10-10T08:05:09.850Z,95.60
2022-10-10T08:07:38.060Z,95.30
2022-10-10T08:10:09.969Z,95.10
2022-10-10T08:12:38.250Z,95.10
2022-10-10T08:15:08.085Z,95.00
2022-10-10T08:17:36.418Z,94.90
2022-10-10T08:20:04.897Z,94.90
2022-10-10T08:22:33.240Z,94.90
2022-10-10T08:25:01.439Z,94.90
2022-10-10T08:27:31.035Z,94.80
2022-10-10T08:29:59.225Z,94.80
2022-10-10T08:32:27.483Z,94.80
2022-10-10T08:34:55.602Z,94.80
2022-10-10T08:37:28.798Z,94.80
2022-10-10T08:39:59.833Z,94.70
2022-10-10T08:42:34.647Z,94.80
2022-10-10T08:45:05.084Z,94.70
2022-10-10T08:47:40.594Z,94.80
2022-10-10T08:50:17.589Z,94.70
2022-10-10T08:52:49.927Z,94.70
2022-10-10T08:55:22.912Z,94.80
2022-10-10T08:57:55.920Z,94.70
2022-10-10T09:00:26.981Z,94.70
2022-10-10T09:02:58.042Z,94.70
2022-10-10T09:05:50.439Z,95.10
2022-10-10T09:08:37.836Z,94.70
2022-10-10T09:11:14.681Z,94.70
2022-10-10T09:13:53.146Z,94.70
2022-10-10T09:16:30.396Z,94.60
2022-10-10T09:19:12.534Z,94.70
2022-10-10T09:21:45.528Z,94.70
2022-10-10T09:24:21.483Z,94.70
2022-10-10T09:26:58.609Z,94.80
2022-10-10T09:29:32.515Z,94.70
2022-10-10T09:32:06.301Z,94.70
2022-10-10T09:34:39.950Z,94.70
2022-10-10T09:37:24.203Z,94.70
2022-10-10T09:40:01.826Z,94.60
2022-10-10T09:42:36.467Z,94.90
2022-10-10T09:45:17.699Z,94.80
2022-10-10T09:47:46.141Z,94.80
2022-10-10T09:50:15.731Z,94.70
2022-10-10T09:52:45.223Z,94.70
2022-10-10T09:55:26.444Z,94.70
2022-10-10T09:57:57.736Z,94.70
2022-10-10T10:00:35.721Z,94.80
2022-10-10T10:03:13.757Z,94.80
2022-10-10T10:05:45.239Z,94.80
2022-10-10T10:08:35.660Z,94.80
2022-10-10T10:11:05.102Z,94.90
2022-10-10T10:13:35.630Z,94.90
2022-10-10T10:16:08.108Z,94.90
2022-10-10T10:18:42.229Z,94.90
2022-10-10T10:21:18.006Z,94.90
2022-10-10T10:23:53.067Z,95.00
2022-10-10T10:26:24.137Z,94.90
2022-10-10T10:28:53.650Z,95.00
2022-10-10T10:31:35.426Z,95.00
2022-10-10T10:34:34.532Z,95.00
2022-10-10T10:37:14.694Z,95.00
2022-10-10T10:39:53.278Z,95.00
2022-10-10T10:42:36.840Z,95.00
2022-10-10T10:45:16.251Z,95.10
2022-10-10T10:47:54.775Z,95.10
2022-10-10T10:50:40.774Z,95.10
2022-10-10T10:53:20.714Z,95.10
2022-10-10T10:55:56.806Z,95.20
2022-10-10T11:01:55.306Z,95.20
2022-10-10T11:05:24.437Z,95.30
2022-10-10T11:07:45.161Z,95.30
2022-10-10T11:10:21.722Z,95.20
2022-10-10T11:13:00.812Z,95.30
2022-10-10T11:16:01.413Z,95.30
2022-10-10T11:18:28.692Z,95.30
2022-10-10T11:21:04.087Z,95.30
2022-10-10T11:23:35.443Z,95.30
2022-10-10T11:26:07.335Z,95.30
2022-10-10T11:28:41.108Z,95.40
2022-10-10T11:31:16.186Z,95.30
2022-10-10T11:33:47.958Z,95.40
2022-10-10T11:36:19.897Z,95.40
2022-10-10T11:38:52.183Z,95.80
2022-10-10T11:41:26.724Z,95.40
2022-10-10T11:43:58.228Z,95.50
2022-10-10T11:46:31.119Z,95.50
2022-10-10T11:49:06.990Z,95.60
2022-10-10T11:51:46.187Z,95.60
2022-10-10T11:54:28.531Z,95.60
2022-10-10T11:57:02.544Z,95.60
2022-10-10T11:59:37.341Z,95.60
2022-10-10T12:02:21.417Z,95.70
2022-10-10T12:04:52.013Z,95.60
2022-10-10T12:07:26.704Z,95.70
2022-10-10T12:09:58.050Z,95.70
2022-10-10T12:12:29.930Z,95.70
2022-10-10T12:15:03.147Z,95.80
2022-10-10T12:17:37.103Z,95.80
2022-10-10T12:20:31.311Z,95.70
2022-10-10T12:23:20.343Z,95.70
2022-10-10T12:25:48.884Z,95.80
2022-10-10T12:28:29.412Z,95.80
2022-10-10T12:31:20.906Z,95.80
2022-10-10T12:34:17.688Z,95.90
2022-10-10T12:37:22.031Z,96.00
2022-10-10T12:40:21.952Z,96.00
2022-10-10T12:43:23.210Z,95.90
2022-10-10T12:46:26.378Z,96.00
2022-10-10T12:49:14.979Z,95.90
2022-10-10T12:51:44.724Z,96.00
2022-10-10T12:54:25.464Z,96.00
2022-10-10T12:57:10.871Z,96.00
2022-10-10T12:59:40.280Z,96.00
2022-10-10T13:02:16.359Z,96.00
2022-10-10T13:04:46.386Z,96.40
2022-10-10T13:07:18.346Z,96.00
2022-10-10T13:09:48.972Z,96.00
2022-10-10T13:12:26.591Z,96.00
2022-10-10T13:14:55.312Z,96.00
2022-10-10T13:17:26.582Z,95.90
2022-10-10T13:19:56.269Z,95.90
2022-10-10T13:22:25.456Z,96.00
2022-10-10T13:24:54.307Z,96.10
2022-10-10T13:27:26.390Z,96.00
2022-10-10T13:29:55.690Z,96.00
2022-10-10T13:32:28.362Z,96.00
2022-10-10T13:34:59.952Z,96.00
2022-10-10T13:37:29.141Z,96.00
2022-10-10T13:39:57.781Z,95.90
2022-10-10T13:42:34.083Z,95.90
2022-10-10T13:45:03.806Z,95.90
2022-10-10T13:47:51.962Z,96.00
2022-10-10T13:50:23.945Z,96.00
2022-10-10T13:52:52.258Z,96.10
2022-10-10T13:55:26.899Z,96.10
2022-10-10T13:58:01.437Z,96.10
2022-10-10T14:00:32.700Z,96.20
2022-10-10T14:03:01.119Z,96.20
2022-10-10T14:05:32.444Z,96.10
2022-10-10T14:08:00.954Z,96.20
2022-10-10T14:10:33.670Z,96.20
2022-10-10T14:13:03.306Z,96.20
2022-10-10T14:15:36.098Z,96.20
2022-10-10T14:18:14.356Z,96.20
2022-10-10T14:20:42.562Z,96.20
2022-10-10T14:23:10.819Z,96.20
2022-10-10T14:25:40.374Z,96.30
2022-10-10T14:28:17.065Z,96.30
2022-10-10T14:30:45.455Z,96.30
2022-10-10T14:33:14.955Z,96.30
2022-10-10T14:35:44.015Z,96.30
2022-10-10T14:38:13.888Z,96.30
2022-10-10T14:40:43.438Z,96.30
2022-10-10T14:43:13.624Z,96.30
2022-10-10T14:45:41.942Z,96.40
2022-10-10T14:48:11.539Z,96.40
2022-10-10T14:50:43.989Z,96.40
2022-10-10T14:53:12.737Z,96.40
2022-10-10T14:55:43.372Z,96.40
2022-10-10T14:58:16.811Z,96.40
2022-10-10T15:00:45.691Z,96.40
2022-10-10T15:03:14.614Z,96.50
2022-10-10T15:05:43.169Z,96.40
2022-10-10T15:08:14.958Z,96.50
2022-10-10T15:10:43.274Z,96.50
2022-10-10T15:13:12.566Z,96.50
2022-10-10T15:15:42.398Z,96.50
2022-10-10T15:18:32.113Z,96.50
2022-10-10T15:20:59.140Z,96.50
2022-10-10T15:23:28.016Z,96.50
2022-10-10T15:26:00.458Z,96.60
2022-10-10T15:28:28.720Z,96.70
2022-10-10T15:30:58.554Z,96.60
2022-10-10T15:33:26.851Z,96.70
2022-10-10T15:36:08.983Z,96.70
2022-10-10T15:38:37.741Z,96.70
2022-10-10T15:41:08.951Z,96.80
2022-10-10T15:43:46.859Z,96.80
2022-10-10T15:46:16.365Z,96.70
2022-10-10T15:48:44.490Z,96.80
2022-10-10T15:51:12.633Z,96.80
2022-10-10T15:53:40.958Z,96.80
2022-10-10T15:56:11.020Z,96.70
2022-10-10T15:58:40.126Z,96.70
2022-10-10T16:01:12.955Z,96.70
2022-10-10T16:03:42.951Z,96.70
2022-10-10T16:06:11.659Z,96.70
2022-10-10T16:08:40.472Z,96.70
2022-10-10T16:11:09.661Z,96.70
2022-10-10T16:13:39.300Z,96.70
2022-10-10T16:16:09.977Z,96.60
2022-10-10T16:18:40.467Z,96.50
2022-10-10T16:21:11.864Z,96.60
2022-10-10T16:23:40.581Z,96.50
2022-10-10T16:26:11.794Z,96.50
2022-10-10T16:28:40.058Z,96.50
2022-10-10T16:31:10.215Z,96.50
2022-10-10T16:33:39.964Z,96.50
2022-10-10T16:36:14.603Z,96.50
2022-10-10T16:38:42.864Z,96.50
2022-10-10T16:41:28.836Z,96.50
2022-10-10T16:43:57.503Z,96.40
2022-10-10T16:46:26.818Z,96.40
2022-10-10T16:48:57.410Z,96.40
2022-10-10T16:51:30.358Z,96.40
2022-10-10T16:54:01.753Z,96.40
2022-10-10T16:56:30.682Z,96.40
2022-10-10T16:59:00.065Z,96.30
2022-10-10T17:01:29.101Z,96.30
2022-10-10T17:03:59.986Z,96.30
2022-10-10T17:06:35.312Z,96.30
2022-10-10T17:09:05.708Z,96.30
2022-10-10T17:11:34.131Z,96.30
2022-10-10T17:14:02.418Z,96.20
2022-10-10T17:17:07.048Z,96.20
2022-10-10T17:19:19.766Z,96.20
2022-10-10T17:21:49.326Z,96.20
2022-10-10T17:24:17.969Z,96.20
2022-10-10T17:26:46.198Z,96.20
2022-10-10T17:29:14.638Z,96.20
2022-10-10T17:31:42.873Z,96.20
2022-10-10T17:34:11.073Z,96.20
2022-10-10T17:36:39.330Z,96.20
2022-10-10T17:39:08.857Z,96.50
2022-10-10T17:41:37.145Z,96.20
2022-10-10T17:44:05.803Z,96.10
2022-10-10T17:46:36.106Z,96.20
2022-10-10T17:49:06.507Z,96.10
2022-10-10T17:51:35.815Z,96.10
2022-10-10T17:54:05.904Z,96.10
2022-10-10T17:56:36.077Z,96.20
2022-10-10T17:59:06.602Z,96.10
2022-10-10T18:01:35.295Z,96.00
2022-10-10T18:04:03.903Z,96.00
2022-10-10T18:06:32.858Z,96.00
2022-10-10T18:09:01.800Z,96.00
2022-10-10T18:11:31.714Z,96.00
2022-10-10T18:14:01.455Z,96.00
2022-10-10T18:16:32.325Z,96.00
2022-10-10T18:19:00.948Z,96.00
2022-10-10T18:21:29.371Z,96.00
2022-10-10T18:23:57.819Z,96.00
2022-10-10T18:26:29.417Z,96.00
2022-10-10T18:28:58.127Z,96.00
2022-10-10T18:31:30.187Z,96.00
2022-10-10T18:33:58.727Z,95.90
2022-10-10T18:36:29.631Z,96.00
2022-10-10T18:38:59.624Z,95.90
2022-10-10T18:41:33.835Z,95.90
2022-10-10T18:44:02.952Z,95.90
2022-10-10T18:46:32.894Z,95.90
2022-10-10T18:49:02.531Z,95.90
2022-10-10T18:51:31.084Z,95.90
2022-10-10T18:54:03.181Z,95.90
2022-10-10T18:56:33.082Z,95.90
2022-10-10T18:59:03.610Z,95.90
2022-10-10T19:01:36.791Z,95.90
2022-10-10T19:04:06.175Z,95.90
2022-10-10T19:06:34.694Z,95.90
2022-10-10T19:09:03.843Z,95.90
2022-10-10T19:11:34.471Z,95.90
2022-10-10T19:14:04.396Z,95.90
2022-10-10T19:16:34.501Z,95.90
2022-10-10T19:19:03.943Z,95.90
2022-10-10T19:21:34.711Z,95.90
2022-10-10T19:24:04.839Z,95.90
2022-10-10T19:26:33.465Z,95.80
2022-10-10T19:29:06.429Z,95.80
2022-10-10T19:31:37.907Z,95.90
2022-10-10T19:34:06.125Z,95.80
2022-10-10T19:36:37.283Z,95.80
2022-10-10T19:39:08.587Z,95.80
2022-10-10T19:41:36.821Z,95.80
2022-10-10T19:44:05.725Z,95.80
2022-10-10T19:46:37.495Z,95.80
2022-10-10T19:49:06.335Z,95.80
2022-10-10T19:51:34.556Z,95.80
2022-10-10T19:54:02.905Z,95.80
2022-10-10T19:56:31.398Z,95.80
2022-10-10T19:59:04.155Z,95.80
2022-10-10T20:01:32.650Z,95.80
2022-10-10T20:04:02.264Z,95.80
2022-10-10T20:06:30.485Z,95.80
2022-10-10T20:08:58.728Z,95.80
2022-10-10T20:11:27.296Z,95.70
2022-10-10T20:13:55.866Z,95.80
2022-10-10T20:16:25.401Z,95.70
2022-10-10T20:18:54.357Z,95.70
2022-10-10T20:21:29.108Z,95.70
2022-10-10T20:23:58.414Z,95.70
2022-10-10T20:26:27.033Z,95.70
2022-10-10T20:28:56.044Z,95.70
2022-10-10T20:31:25.887Z,96.10
2022-10-10T20:33:56.247Z,95.70
2022-10-10T20:36:28.901Z,95.70
2022-10-10T20:38:58.843Z,95.70
2022-10-10T20:41:30.382Z,95.70
2022-10-10T20:44:00.170Z,95.70
2022-10-10T20:46:30.727Z,95.70
2022-10-10T20:49:00.779Z,95.70
2022-10-10T20:51:30.455Z,95.70
2022-10-10T20:53:59.998Z,95.70
2022-10-10T20:56:29.683Z,95.70
2022-10-10T20:58:58.330Z,95.70
2022-10-10T21:01:28.219Z,95.70
2022-10-10T21:03:57.175Z,95.70
2022-10-10T21:06:28.651Z,95.70
2022-10-10T21:09:00.984Z,95.70
2022-10-10T21:11:29.282Z,95.70
2022-10-10T21:13:59.114Z,95.70
2022-10-10T21:16:29.820Z,95.70
2022-10-10T21:18:58.751Z,95.70
2022-10-10T21:21:28.312Z,95.70
2022-10-10T21:23:58.179Z,95.60
2022-10-10T21:26:27.838Z,95.60
2022-10-10T21:28:57.274Z,95.60
2022-10-10T21:31:27.136Z,95.60
2022-10-10T21:33:55.671Z,95.60
2022-10-10T21:36:26.612Z,95.60
2022-10-10T21:38:55.854Z,95.60
2022-10-10T21:41:25.983Z,95.60
2022-10-10T21:43:55.804Z,95.60
2022-10-10T21:46:29.086Z,95.60
2022-10-10T21:48:59.764Z,95.60
2022-10-10T21:51:28.091Z,95.60
2022-10-10T21:53:57.711Z,95.60
2022-10-10T21:56:27.476Z,95.60
2022-10-10T21:59:00.892Z,95.60
2022-10-10T22:01:32.730Z,95.60
2022-10-10T22:04:02.300Z,95.60
2022-10-10T22:06:30.700Z,95.60
2022-10-10T22:09:00.657Z,95.60
2022-10-10T22:11:32.074Z,95.60
2022-10-10T22:14:02.258Z,95.60
2022-10-10T22:16:30.959Z,95.60
2022-10-10T22:18:59.561Z,95.60
2022-10-10T22:21:31.562Z,95.60
2022-10-10T22:24:01.491Z,95.60
2022-10-10T22:26:31.879Z,95.60
2022-10-10T22:29:00.547Z,95.60
2022-10-10T22:31:29.337Z,95.60
2022-10-10T22:33:58.492Z,95.60
2022-10-10T22:36:26.929Z,95.60
2022-10-10T22:38:55.095Z,95.60
2022-10-10T22:41:23.622Z,95.50
2022-10-10T22:43:53.200Z,95.50
2022-10-10T22:46:21.418Z,95.60
2022-10-10T22:48:49.578Z,95.50
2022-10-10T22:51:19.613Z,95.60
2022-10-10T22:53:48.857Z,95.50
2022-10-10T22:56:20.280Z,95.50
2022-10-10T22:58:48.937Z,95.60
2022-10-10T23:01:20.040Z,95.50
2022-10-10T23:03:48.267Z,95.50
2022-10-10T23:06:17.011Z,95.50
2022-10-10T23:08:45.229Z,95.50
2022-10-10T23:11:13.406Z,95.50
2022-10-10T23:13:41.692Z,95.50
2022-10-10T23:16:10.925Z,95.50
2022-10-10T23:18:40.483Z,95.50
2022-10-10T23:21:08.729Z,95.50
2022-10-10T23:23:37.015Z,95.50
2022-10-10T23:26:08.962Z,95.50
2022-10-10T23:28:39.271Z,95.50
2022-10-10T23:31:09.867Z,95.50
2022-10-10T23:33:38.391Z,95.50
2022-10-10T23:36:11.654Z,95.50
2022-10-10T23:38:40.565Z,95.50
2022-10-10T23:41:09.855Z,95.50
2022-10-10T23:43:38.116Z,95.50
2022-10-10T23:46:06.979Z,95.50
2022-10-10T23:48:35.584Z,95.50
2022-10-10T23:51:03.951Z,95.50
2022-10-10T23:53:33.844Z,95.50
2022-10-10T23:56:02.379Z,95.50
2022-10-10T23:58:30.858Z,95.50
